sensor_id;sensor_type;location;lat;lon;timestamp;pressure;altitude;pressure_sealevel;temperature;humidity
13312;BME280;34033;48.672;9.376;2022-07-22T00:00:06;98877.31;;;23.82;61.20
13312;BME280;34033;48.672;9.376;2022-07-22T00:02:32;98876.38;;;23.76;61.26
13312;BME280;34033;48.672;9.376;2022-07-22T00:04:58;98875.41;;;23.79;61.48
13312;BME280;34033;48.672;9.376;2022-07-22T00:07:23;98877.13;;;23.77;61.55
13312;BME280;34033;48.672;9.376;2022-07-22T00:09:49;98873.38;;;23.80;61.46
13312;BME280;34033;48.672;9.376;2022-07-22T00:12:14;98875.41;;;23.79;61.47
13312;BME280;34033;48.672;9.376;2022-07-22T00:14:39;98870.34;;;23.83;61.41
13312;BME280;34033;48.672;9.376;2022-07-22T00:17:05;98867.66;;;23.89;61.16
13312;BME280;34033;48.672;9.376;2022-07-22T00:19:30;98867.22;;;23.99;60.79
13312;BME280;34033;48.672;9.376;2022-07-22T00:21:56;98871.22;;;24.02;60.66
13312;BME280;34033;48.672;9.376;2022-07-22T00:24:21;98871.06;;;24.05;60.46
13312;BME280;34033;48.672;9.376;2022-07-22T00:26:47;98871.06;;;24.05;60.40
13312;BME280;34033;48.672;9.376;2022-07-22T00:29:12;98873.63;;;24.03;60.35
13312;BME280;34033;48.672;9.376;2022-07-22T00:31:37;98869.13;;;23.93;60.46
13312;BME280;34033;48.672;9.376;2022-07-22T00:34:03;98864.03;;;23.88;60.56
13312;BME280;34033;48.672;9.376;2022-07-22T00:36:31;98864.34;;;23.90;60.52
13312;BME280;34033;48.672;9.376;2022-07-22T00:38:57;98871.66;;;23.91;60.51
13312;BME280;34033;48.672;9.376;2022-07-22T00:41:23;98871.69;;;24.00;60.21
13312;BME280;34033;48.672;9.376;2022-07-22T00:46:14;98868.72;;;23.73;61.02
13312;BME280;34033;48.672;9.376;2022-07-22T00:48:40;98858.91;;;23.74;60.93
13312;BME280;34033;48.672;9.376;2022-07-22T00:51:05;98860.81;;;23.77;60.83
13312;BME280;34033;48.672;9.376;2022-07-22T00:53:31;98865.13;;;23.82;60.57
13312;BME280;34033;48.672;9.376;2022-07-22T00:55:56;98859.56;;;23.87;60.33
13312;BME280;34033;48.672;9.376;2022-07-22T00:58:22;98863.56;;;23.90;60.32
13312;BME280;34033;48.672;9.376;2022-07-22T01:00:47;98850.69;;;23.85;60.43
13312;BME280;34033;48.672;9.376;2022-07-22T01:03:12;98853.41;;;23.89;60.18
13312;BME280;34033;48.672;9.376;2022-07-22T01:05:39;98853.22;;;23.83;60.40
13312;BME280;34033;48.672;9.376;2022-07-22T01:08:07;98856.41;;;23.85;60.34
13312;BME280;34033;48.672;9.376;2022-07-22T01:10:33;98864.00;;;23.79;60.53
13312;BME280;34033;48.672;9.376;2022-07-22T01:12:58;98860.44;;;23.66;61.06
13312;BME280;34033;48.672;9.376;2022-07-22T01:15:23;98853.09;;;23.56;61.38
13312;BME280;34033;48.672;9.376;2022-07-22T01:17:49;98864.72;;;23.61;61.14
13312;BME280;34033;48.672;9.376;2022-07-22T01:20:15;98864.50;;;23.47;61.61
13312;BME280;34033;48.672;9.376;2022-07-22T01:22:40;98856.50;;;23.42;61.89
13312;BME280;34033;48.672;9.376;2022-07-22T01:25:06;98864.34;;;23.50;61.54
13312;BME280;34033;48.672;9.376;2022-07-22T01:27:31;98866.56;;;23.55;61.40
13312;BME280;34033;48.672;9.376;2022-07-22T01:29:57;98853.44;;;23.58;61.34
13312;BME280;34033;48.672;9.376;2022-07-22T01:32:22;98858.19;;;23.61;61.18
13312;BME280;34033;48.672;9.376;2022-07-22T01:34:48;98855.03;;;23.59;61.15
13312;BME280;34033;48.672;9.376;2022-07-22T01:37:13;98852.50;;;23.61;61.19
13312;BME280;34033;48.672;9.376;2022-07-22T01:39:39;98853.44;;;23.58;61.15
13312;BME280;34033;48.672;9.376;2022-07-22T01:42:04;98851.25;;;23.62;61.08
13312;BME280;34033;48.672;9.376;2022-07-22T01:44:31;98848.09;;;23.69;60.75
13312;BME280;34033;48.672;9.376;2022-07-22T01:46:56;98860.94;;;23.64;60.92
13312;BME280;34033;48.672;9.376;2022-07-22T01:49:24;98857.09;;;23.58;60.97
13312;BME280;34033;48.672;9.376;2022-07-22T01:51:49;98861.66;;;23.56;61.13
13312;BME280;34033;48.672;9.376;2022-07-22T01:54:14;98857.91;;;23.59;60.82
13312;BME280;34033;48.672;9.376;2022-07-22T01:56:40;98858.69;;;23.59;60.83
13312;BME280;34033;48.672;9.376;2022-07-22T01:59:05;98855.16;;;23.55;60.88
13312;BME280;34033;48.672;9.376;2022-07-22T02:01:30;98848.19;;;23.56;60.87
13312;BME280;34033;48.672;9.376;2022-07-22T02:03:56;98852.00;;;23.53;60.97
13312;BME280;34033;48.672;9.376;2022-07-22T02:06:21;98857.72;;;23.53;60.78
13312;BME280;34033;48.672;9.376;2022-07-22T02:08:46;98852.06;;;23.41;61.24
13312;BME280;34033;48.672;9.376;2022-07-22T02:11:12;98857.56;;;23.35;61.50
13312;BME280;34033;48.672;9.376;2022-07-22T02:13:37;98855.47;;;23.26;61.64
13312;BME280;34033;48.672;9.376;2022-07-22T02:16:03;98853.69;;;23.20;61.74
13312;BME280;34033;48.672;9.376;2022-07-22T02:18:28;98851.44;;;23.15;62.05
13312;BME280;34033;48.672;9.376;2022-07-22T02:20:54;98852.81;;;23.10;62.35
13312;BME280;34033;48.672;9.376;2022-07-22T02:23:19;98849.38;;;23.15;62.20
13312;BME280;34033;48.672;9.376;2022-07-22T02:25:45;98856.53;;;23.20;61.99
13312;BME280;34033;48.672;9.376;2022-07-22T02:28:10;98849.03;;;23.13;62.31
13312;BME280;34033;48.672;9.376;2022-07-22T02:30:36;98855.09;;;23.15;62.41
13312;BME280;34033;48.672;9.376;2022-07-22T02:33:01;98848.91;;;23.17;62.04
13312;BME280;34033;48.672;9.376;2022-07-22T02:35:27;98850.97;;;23.16;62.24
13312;BME280;34033;48.672;9.376;2022-07-22T02:37:52;98849.31;;;23.06;62.72
13312;BME280;34033;48.672;9.376;2022-07-22T02:40:17;98843.94;;;23.08;62.46
13312;BME280;34033;48.672;9.376;2022-07-22T02:42:43;98847.19;;;23.19;62.13
13312;BME280;34033;48.672;9.376;2022-07-22T02:45:09;98852.94;;;23.28;61.83
13312;BME280;34033;48.672;9.376;2022-07-22T02:47:34;98850.03;;;23.19;61.97
13312;BME280;34033;48.672;9.376;2022-07-22T02:50:00;98843.28;;;23.26;61.66
13312;BME280;34033;48.672;9.376;2022-07-22T02:52:25;98841.41;;;23.32;61.49
13312;BME280;34033;48.672;9.376;2022-07-22T02:54:51;98842.19;;;23.33;61.24
13312;BME280;34033;48.672;9.376;2022-07-22T02:57:16;98842.94;;;23.24;61.45
13312;BME280;34033;48.672;9.376;2022-07-22T02:59:42;98839.75;;;23.22;61.38
13312;BME280;34033;48.672;9.376;2022-07-22T03:02:07;98854.50;;;23.20;61.48
13312;BME280;34033;48.672;9.376;2022-07-22T03:04:32;98845.44;;;23.22;61.30
13312;BME280;34033;48.672;9.376;2022-07-22T03:06:58;98843.13;;;23.29;61.07
13312;BME280;34033;48.672;9.376;2022-07-22T03:09:23;98851.03;;;23.25;61.02
13312;BME280;34033;48.672;9.376;2022-07-22T03:11:49;98847.72;;;23.05;61.58
13312;BME280;34033;48.672;9.376;2022-07-22T03:14:14;98847.50;;;23.00;61.84
13312;BME280;34033;48.672;9.376;2022-07-22T03:16:41;98849.38;;;22.94;62.56
13312;BME280;34033;48.672;9.376;2022-07-22T03:19:06;98843.28;;;22.82;62.53
13312;BME280;34033;48.672;9.376;2022-07-22T03:21:32;98842.78;;;22.62;63.13
13312;BME280;34033;48.672;9.376;2022-07-22T03:23:57;98851.78;;;22.61;63.39
13312;BME280;34033;48.672;9.376;2022-07-22T03:26:23;98848.50;;;22.50;63.37
13312;BME280;34033;48.672;9.376;2022-07-22T03:28:49;98844.69;;;22.43;63.80
13312;BME280;34033;48.672;9.376;2022-07-22T03:31:15;98854.91;;;22.54;63.47
13312;BME280;34033;48.672;9.376;2022-07-22T03:33:40;98844.72;;;22.65;62.94
13312;BME280;34033;48.672;9.376;2022-07-22T03:36:06;98855.41;;;22.74;62.38
13312;BME280;34033;48.672;9.376;2022-07-22T03:38:34;98863.28;;;22.70;62.27
13312;BME280;34033;48.672;9.376;2022-07-22T03:41:00;98859.41;;;22.76;62.02
13312;BME280;34033;48.672;9.376;2022-07-22T03:43:26;98867.72;;;22.71;62.14
13312;BME280;34033;48.672;9.376;2022-07-22T03:45:51;98859.56;;;22.60;62.26
13312;BME280;34033;48.672;9.376;2022-07-22T03:48:16;98860.59;;;22.54;62.71
13312;BME280;34033;48.672;9.376;2022-07-22T03:50:42;98859.28;;;22.67;62.41
13312;BME280;34033;48.672;9.376;2022-07-22T03:53:07;98868.53;;;22.71;62.54
13312;BME280;34033;48.672;9.376;2022-07-22T03:55:32;98858.00;;;22.81;62.14
13312;BME280;34033;48.672;9.376;2022-07-22T03:57:58;98858.13;;;22.77;62.09
13312;BME280;34033;48.672;9.376;2022-07-22T04:00:23;98860.38;;;22.82;61.85
13312;BME280;34033;48.672;9.376;2022-07-22T04:02:48;98865.16;;;22.85;61.62
13312;BME280;34033;48.672;9.376;2022-07-22T04:05:14;98867.22;;;22.85;61.31
13312;BME280;34033;48.672;9.376;2022-07-22T04:07:39;98867.56;;;22.87;61.34
13312;BME280;34033;48.672;9.376;2022-07-22T04:10:05;98863.75;;;22.90;61.24
13312;BME280;34033;48.672;9.376;2022-07-22T04:12:35;98858.72;;;22.94;60.90
13312;BME280;34033;48.672;9.376;2022-07-22T04:15:01;98870.72;;;22.89;61.06
13312;BME280;34033;48.672;9.376;2022-07-22T04:17:26;98871.66;;;22.52;61.76
13312;BME280;34033;48.672;9.376;2022-07-22T04:19:52;98874.94;;;22.16;62.77
13312;BME280;34033;48.672;9.376;2022-07-22T04:22:17;98875.84;;;21.87;63.86
13312;BME280;34033;48.672;9.376;2022-07-22T04:24:42;98858.78;;;21.62;64.92
13312;BME280;34033;48.672;9.376;2022-07-22T04:27:07;98863.53;;;21.40;65.77
13312;BME280;34033;48.672;9.376;2022-07-22T04:29:33;98861.69;;;21.20;66.56
13312;BME280;34033;48.672;9.376;2022-07-22T04:31:58;98853.53;;;21.06;67.13
13312;BME280;34033;48.672;9.376;2022-07-22T04:34:23;98860.47;;;20.93;68.23
13312;BME280;34033;48.672;9.376;2022-07-22T04:36:49;98861.31;;;20.77;69.21
13312;BME280;34033;48.672;9.376;2022-07-22T04:39:14;98859.91;;;20.69;69.76
13312;BME280;34033;48.672;9.376;2022-07-22T04:41:39;98854.00;;;20.63;69.86
13312;BME280;34033;48.672;9.376;2022-07-22T04:44:05;98863.97;;;20.55;70.45
13312;BME280;34033;48.672;9.376;2022-07-22T04:46:30;98856.78;;;20.51;70.90
13312;BME280;34033;48.672;9.376;2022-07-22T04:48:56;98848.47;;;20.44;70.97
13312;BME280;34033;48.672;9.376;2022-07-22T04:51:21;98854.94;;;20.44;71.48
13312;BME280;34033;48.672;9.376;2022-07-22T04:53:46;98850.38;;;20.47;71.38
13312;BME280;34033;48.672;9.376;2022-07-22T04:56:12;98853.34;;;20.43;71.94
13312;BME280;34033;48.672;9.376;2022-07-22T04:58:37;98851.75;;;20.42;71.60
13312;BME280;34033;48.672;9.376;2022-07-22T05:01:02;98855.81;;;20.41;71.74
13312;BME280;34033;48.672;9.376;2022-07-22T05:03:28;98845.69;;;20.40;71.89
13312;BME280;34033;48.672;9.376;2022-07-22T05:05:53;98852.19;;;20.40;72.02
13312;BME280;34033;48.672;9.376;2022-07-22T05:08:18;98849.81;;;20.39;72.29
13312;BME280;34033;48.672;9.376;2022-07-22T05:10:44;98846.97;;;20.39;72.44
13312;BME280;34033;48.672;9.376;2022-07-22T05:13:12;98849.25;;;20.44;72.24
13312;BME280;34033;48.672;9.376;2022-07-22T05:15:37;98846.75;;;20.46;72.07
13312;BME280;34033;48.672;9.376;2022-07-22T05:18:03;98848.03;;;20.45;71.85
13312;BME280;34033;48.672;9.376;2022-07-22T05:20:28;98847.13;;;20.48;72.00
13312;BME280;34033;48.672;9.376;2022-07-22T05:22:54;98843.03;;;20.49;71.76
13312;BME280;34033;48.672;9.376;2022-07-22T05:25:19;98846.13;;;20.55;71.69
13312;BME280;34033;48.672;9.376;2022-07-22T05:27:54;98846.91;;;20.55;71.66
13312;BME280;34033;48.672;9.376;2022-07-22T05:30:20;98844.09;;;20.55;71.60
13312;BME280;34033;48.672;9.376;2022-07-22T05:32:46;98841.56;;;20.57;71.82
13312;BME280;34033;48.672;9.376;2022-07-22T05:35:11;98847.72;;;20.56;72.19
13312;BME280;34033;48.672;9.376;2022-07-22T05:37:37;98846.00;;;20.58;72.06
13312;BME280;34033;48.672;9.376;2022-07-22T05:40:02;98851.16;;;20.63;72.19
13312;BME280;34033;48.672;9.376;2022-07-22T05:42:28;98846.63;;;20.66;72.05
13312;BME280;34033;48.672;9.376;2022-07-22T05:44:53;98849.34;;;20.69;71.92
13312;BME280;34033;48.672;9.376;2022-07-22T05:47:19;98843.69;;;20.69;71.96
13312;BME280;34033;48.672;9.376;2022-07-22T05:49:44;98848.47;;;20.72;72.25
13312;BME280;34033;48.672;9.376;2022-07-22T05:52:10;98837.78;;;20.76;72.06
13312;BME280;34033;48.672;9.376;2022-07-22T05:54:35;98842.94;;;20.81;72.10
13312;BME280;34033;48.672;9.376;2022-07-22T05:57:00;98841.31;;;20.80;72.10
13312;BME280;34033;48.672;9.376;2022-07-22T05:59:26;98833.72;;;20.77;72.47
13312;BME280;34033;48.672;9.376;2022-07-22T06:01:52;98837.78;;;20.76;72.55
13312;BME280;34033;48.672;9.376;2022-07-22T06:04:17;98843.28;;;20.84;72.60
13312;BME280;34033;48.672;9.376;2022-07-22T06:06:43;98841.56;;;20.86;72.59
13312;BME280;34033;48.672;9.376;2022-07-22T06:09:08;98845.09;;;20.90;72.49
13312;BME280;34033;48.672;9.376;2022-07-22T06:11:33;98835.44;;;20.88;72.38
13312;BME280;34033;48.672;9.376;2022-07-22T06:13:59;98845.00;;;20.94;72.19
13312;BME280;34033;48.672;9.376;2022-07-22T06:16:24;98842.16;;;20.94;72.19
13312;BME280;34033;48.672;9.376;2022-07-22T06:18:49;98846.63;;;20.95;72.05
13312;BME280;34033;48.672;9.376;2022-07-22T06:21:15;98842.28;;;21.03;72.12
13312;BME280;34033;48.672;9.376;2022-07-22T06:23:40;98842.09;;;21.10;71.82
13312;BME280;34033;48.672;9.376;2022-07-22T06:26:06;98843.59;;;21.14;71.43
13312;BME280;34033;48.672;9.376;2022-07-22T06:28:31;98840.06;;;21.23;71.63
13312;BME280;34033;48.672;9.376;2022-07-22T06:30:56;98844.75;;;21.30;71.29
13312;BME280;34033;48.672;9.376;2022-07-22T06:33:22;98838.28;;;21.29;70.94
13312;BME280;34033;48.672;9.376;2022-07-22T06:35:47;98837.69;;;21.34;70.88
13312;BME280;34033;48.672;9.376;2022-07-22T06:38:13;98840.69;;;21.43;70.62
13312;BME280;34033;48.672;9.376;2022-07-22T06:40:38;98837.59;;;21.50;70.80
13312;BME280;34033;48.672;9.376;2022-07-22T06:43:04;98842.63;;;21.59;70.46
13312;BME280;34033;48.672;9.376;2022-07-22T06:45:31;98844.78;;;21.68;70.00
13312;BME280;34033;48.672;9.376;2022-07-22T06:47:56;98838.72;;;21.78;69.53
13312;BME280;34033;48.672;9.376;2022-07-22T06:50:22;98837.72;;;21.85;68.96
13312;BME280;34033;48.672;9.376;2022-07-22T06:52:48;98839.88;;;21.93;68.52
13312;BME280;34033;48.672;9.376;2022-07-22T06:55:14;98846.50;;;22.03;68.64
13312;BME280;34033;48.672;9.376;2022-07-22T06:57:40;98839.03;;;22.18;67.17
13312;BME280;34033;48.672;9.376;2022-07-22T07:00:07;98839.09;;;22.40;65.92
13312;BME280;34033;48.672;9.376;2022-07-22T07:02:33;98839.69;;;22.69;64.29
13312;BME280;34033;48.672;9.376;2022-07-22T07:04:58;98834.41;;;22.80;63.32
13312;BME280;34033;48.672;9.376;2022-07-22T07:07:24;98844.16;;;22.92;62.96
13312;BME280;34033;48.672;9.376;2022-07-22T07:09:49;98837.84;;;22.97;62.79
13312;BME280;34033;48.672;9.376;2022-07-22T07:12:14;98826.75;;;22.99;62.70
13312;BME280;34033;48.672;9.376;2022-07-22T07:14:40;98831.75;;;22.86;63.08
13312;BME280;34033;48.672;9.376;2022-07-22T07:17:05;98829.91;;;22.92;62.76
13312;BME280;34033;48.672;9.376;2022-07-22T07:19:31;98817.03;;;23.09;62.14
13312;BME280;34033;48.672;9.376;2022-07-22T07:21:56;98817.34;;;23.11;62.52
13312;BME280;34033;48.672;9.376;2022-07-22T07:24:22;98816.09;;;23.12;62.15
13312;BME280;34033;48.672;9.376;2022-07-22T07:26:47;98805.94;;;23.11;62.59
13312;BME280;34033;48.672;9.376;2022-07-22T07:29:12;98812.63;;;23.17;62.55
13312;BME280;34033;48.672;9.376;2022-07-22T07:31:38;98804.72;;;23.21;62.26
13312;BME280;34033;48.672;9.376;2022-07-22T07:34:03;98804.78;;;23.31;62.21
13312;BME280;34033;48.672;9.376;2022-07-22T07:36:29;98796.53;;;23.33;61.85
13312;BME280;34033;48.672;9.376;2022-07-22T07:38:54;98792.47;;;23.43;61.78
13312;BME280;34033;48.672;9.376;2022-07-22T07:41:20;98798.72;;;23.50;61.73
13312;BME280;34033;48.672;9.376;2022-07-22T07:43:45;98784.59;;;23.47;62.26
13312;BME280;34033;48.672;9.376;2022-07-22T07:46:11;98787.50;;;23.34;62.73
13312;BME280;34033;48.672;9.376;2022-07-22T07:48:36;98783.59;;;23.41;63.07
13312;BME280;34033;48.672;9.376;2022-07-22T07:51:02;98779.19;;;23.49;62.83
13312;BME280;34033;48.672;9.376;2022-07-22T07:53:27;98783.81;;;23.55;63.12
13312;BME280;34033;48.672;9.376;2022-07-22T07:55:53;98767.09;;;23.76;60.78
13312;BME280;34033;48.672;9.376;2022-07-22T07:58:18;98777.72;;;23.75;61.17
13312;BME280;34033;48.672;9.376;2022-07-22T08:00:44;98773.00;;;23.90;61.19
13312;BME280;34033;48.672;9.376;2022-07-22T08:03:10;98774.91;;;24.02;60.81
13312;BME280;34033;48.672;9.376;2022-07-22T08:05:36;98763.16;;;24.09;61.13
13312;BME280;34033;48.672;9.376;2022-07-22T08:08:04;98765.28;;;24.18;60.40
13312;BME280;34033;48.672;9.376;2022-07-22T08:10:30;98765.47;;;23.65;61.34
13312;BME280;34033;48.672;9.376;2022-07-22T08:12:55;98768.31;;;23.65;61.46
13312;BME280;34033;48.672;9.376;2022-07-22T08:15:23;98766.88;;;23.61;61.53
13312;BME280;34033;48.672;9.376;2022-07-22T08:17:49;98757.56;;;23.69;61.60
13312;BME280;34033;48.672;9.376;2022-07-22T08:20:14;98760.19;;;23.55;62.39
13312;BME280;34033;48.672;9.376;2022-07-22T08:22:39;98769.81;;;23.88;60.83
13312;BME280;34033;48.672;9.376;2022-07-22T08:25:05;98751.91;;;24.06;60.96
13312;BME280;34033;48.672;9.376;2022-07-22T08:27:31;98766.53;;;24.26;60.97
13312;BME280;34033;48.672;9.376;2022-07-22T08:29:56;98751.94;;;24.42;60.06
13312;BME280;34033;48.672;9.376;2022-07-22T08:32:22;98760.69;;;24.30;59.83
13312;BME280;34033;48.672;9.376;2022-07-22T08:34:47;98755.59;;;24.52;58.66
13312;BME280;34033;48.672;9.376;2022-07-22T08:37:12;98748.63;;;24.53;59.49
13312;BME280;34033;48.672;9.376;2022-07-22T08:39:38;98750.53;;;24.56;59.19
13312;BME280;34033;48.672;9.376;2022-07-22T08:42:03;98748.59;;;24.71;58.43
13312;BME280;34033;48.672;9.376;2022-07-22T08:44:32;98748.31;;;24.42;58.47
13312;BME280;34033;48.672;9.376;2022-07-22T08:46:59;98739.41;;;24.49;58.53
13312;BME280;34033;48.672;9.376;2022-07-22T08:49:24;98734.66;;;24.46;59.04
13312;BME280;34033;48.672;9.376;2022-07-22T08:51:50;98735.91;;;24.54;59.05
13312;BME280;34033;48.672;9.376;2022-07-22T08:54:15;98734.00;;;24.60;58.70
13312;BME280;34033;48.672;9.376;2022-07-22T08:56:40;98720.16;;;24.77;58.60
13312;BME280;34033;48.672;9.376;2022-07-22T08:59:08;98721.22;;;24.98;57.82
13312;BME280;34033;48.672;9.376;2022-07-22T09:01:33;98717.84;;;25.17;57.52
13312;BME280;34033;48.672;9.376;2022-07-22T09:03:58;98714.50;;;25.19;56.12
13312;BME280;34033;48.672;9.376;2022-07-22T09:06:26;98718.34;;;25.07;56.49
13312;BME280;34033;48.672;9.376;2022-07-22T09:08:56;98703.47;;;25.26;56.04
13312;BME280;34033;48.672;9.376;2022-07-22T09:11:23;98713.06;;;25.56;55.93
13312;BME280;34033;48.672;9.376;2022-07-22T09:13:49;98708.94;;;25.57;54.68
13312;BME280;34033;48.672;9.376;2022-07-22T09:16:14;98705.69;;;25.64;54.72
13312;BME280;34033;48.672;9.376;2022-07-22T09:18:51;98699.78;;;25.92;54.70
13312;BME280;34033;48.672;9.376;2022-07-22T09:21:17;98706.16;;;26.10;52.91
13312;BME280;34033;48.672;9.376;2022-07-22T09:23:42;98705.97;;;26.14;51.95
13312;BME280;34033;48.672;9.376;2022-07-22T09:26:08;98699.03;;;26.30;52.10
13312;BME280;34033;48.672;9.376;2022-07-22T09:28:34;98695.56;;;26.26;51.40
13312;BME280;34033;48.672;9.376;2022-07-22T09:30:59;98691.44;;;26.41;50.68
13312;BME280;34033;48.672;9.376;2022-07-22T09:33:25;98701.13;;;26.58;50.96
13312;BME280;34033;48.672;9.376;2022-07-22T09:35:51;98699.00;;;26.68;50.79
13312;BME280;34033;48.672;9.376;2022-07-22T09:38:19;98699.97;;;26.80;49.73
13312;BME280;34033;48.672;9.376;2022-07-22T09:40:51;98698.59;;;26.61;49.59
13312;BME280;34033;48.672;9.376;2022-07-22T09:43:18;98690.69;;;26.55;48.72
13312;BME280;34033;48.672;9.376;2022-07-22T09:45:52;98688.09;;;26.57;48.25
13312;BME280;34033;48.672;9.376;2022-07-22T09:48:20;98680.38;;;26.34;48.44
13312;BME280;34033;48.672;9.376;2022-07-22T09:50:47;98682.16;;;26.46;48.56
13312;BME280;34033;48.672;9.376;2022-07-22T09:53:14;98680.38;;;26.64;48.84
13312;BME280;34033;48.672;9.376;2022-07-22T09:55:40;98680.78;;;26.71;47.80
13312;BME280;34033;48.672;9.376;2022-07-22T09:58:06;98665.47;;;26.89;48.11
13312;BME280;34033;48.672;9.376;2022-07-22T10:00:36;98671.09;;;26.83;47.32
13312;BME280;34033;48.672;9.376;2022-07-22T10:03:04;98663.09;;;26.87;47.72
13312;BME280;34033;48.672;9.376;2022-07-22T10:05:32;98664.66;;;27.03;48.21
13312;BME280;34033;48.672;9.376;2022-07-22T10:08:00;98660.72;;;27.35;47.92
13312;BME280;34033;48.672;9.376;2022-07-22T10:10:28;98653.13;;;27.67;47.48
13312;BME280;34033;48.672;9.376;2022-07-22T10:12:56;98654.78;;;27.94;46.75
13312;BME280;34033;48.672;9.376;2022-07-22T10:15:23;98651.19;;;28.19;46.30
13312;BME280;34033;48.672;9.376;2022-07-22T10:17:51;98651.38;;;27.96;46.35
13312;BME280;34033;48.672;9.376;2022-07-22T10:20:25;98637.75;;;28.11;46.96
13312;BME280;34033;48.672;9.376;2022-07-22T10:23:01;98646.97;;;28.41;46.98
13312;BME280;34033;48.672;9.376;2022-07-22T10:25:30;98633.00;;;28.54;45.82
13312;BME280;34033;48.672;9.376;2022-07-22T10:28:02;98637.91;;;28.48;45.77
13312;BME280;34033;48.672;9.376;2022-07-22T10:30:36;98630.19;;;28.34;45.47
13312;BME280;34033;48.672;9.376;2022-07-22T10:35:33;98619.34;;;28.23;45.99
13312;BME280;34033;48.672;9.376;2022-07-22T10:38:00;98620.13;;;28.24;46.34
13312;BME280;34033;48.672;9.376;2022-07-22T10:40:28;98614.84;;;28.42;47.45
13312;BME280;34033;48.672;9.376;2022-07-22T10:45:30;98611.44;;;28.70;45.52
13312;BME280;34033;48.672;9.376;2022-07-22T10:47:59;98603.44;;;28.79;45.07
13312;BME280;34033;48.672;9.376;2022-07-22T10:50:55;98598.38;;;29.06;45.53
13312;BME280;34033;48.672;9.376;2022-07-22T10:53:54;98594.03;;;29.16;44.80
13312;BME280;34033;48.672;9.376;2022-07-22T10:56:30;98594.03;;;29.58;44.74
13312;BME280;34033;48.672;9.376;2022-07-22T10:58:58;98601.97;;;29.74;44.44
13312;BME280;34033;48.672;9.376;2022-07-22T11:01:26;98596.16;;;29.63;43.87
13312;BME280;34033;48.672;9.376;2022-07-22T11:03:53;98594.94;;;29.87;44.16
13312;BME280;34033;48.672;9.376;2022-07-22T11:06:25;98586.38;;;29.98;42.61
13312;BME280;34033;48.672;9.376;2022-07-22T11:09:00;98582.22;;;30.21;42.64
13312;BME280;34033;48.672;9.376;2022-07-22T11:14:01;98578.09;;;30.66;40.90
13312;BME280;34033;48.672;9.376;2022-07-22T11:16:27;98588.84;;;30.66;41.45
13312;BME280;34033;48.672;9.376;2022-07-22T11:19:01;98581.25;;;30.91;41.76
13312;BME280;34033;48.672;9.376;2022-07-22T11:21:29;98576.25;;;31.14;41.93
13312;BME280;34033;48.672;9.376;2022-07-22T11:23:57;98572.78;;;31.26;41.24
13312;BME280;34033;48.672;9.376;2022-07-22T11:26:35;98570.22;;;30.95;41.40
13312;BME280;34033;48.672;9.376;2022-07-22T11:29:01;98566.28;;;30.92;40.99
13312;BME280;34033;48.672;9.376;2022-07-22T11:31:27;98559.97;;;30.83;41.52
13312;BME280;34033;48.672;9.376;2022-07-22T11:34:07;98563.66;;;30.72;42.23
13312;BME280;34033;48.672;9.376;2022-07-22T11:36:34;98554.50;;;30.62;42.75
13312;BME280;34033;48.672;9.376;2022-07-22T11:39:00;98563.38;;;30.42;43.01
13312;BME280;34033;48.672;9.376;2022-07-22T11:41:29;98552.63;;;30.37;42.73
13312;BME280;34033;48.672;9.376;2022-07-22T11:43:55;98546.91;;;30.76;41.93
13312;BME280;34033;48.672;9.376;2022-07-22T11:46:20;98530.06;;;31.14;41.07
13312;BME280;34033;48.672;9.376;2022-07-22T11:48:46;98541.34;;;30.95;41.25
13312;BME280;34033;48.672;9.376;2022-07-22T11:51:12;98530.06;;;31.14;41.38
13312;BME280;34033;48.672;9.376;2022-07-22T11:53:39;98530.31;;;30.99;40.58
13312;BME280;34033;48.672;9.376;2022-07-22T11:56:06;98525.25;;;31.33;41.03
13312;BME280;34033;48.672;9.376;2022-07-22T11:58:44;98524.06;;;31.75;38.89
13312;BME280;34033;48.672;9.376;2022-07-22T12:01:15;98523.63;;;32.06;38.59
13312;BME280;34033;48.672;9.376;2022-07-22T12:03:44;98518.22;;;31.86;38.32
13312;BME280;34033;48.672;9.376;2022-07-22T12:06:12;98517.94;;;31.89;39.17
13312;BME280;34033;48.672;9.376;2022-07-22T12:08:43;98507.38;;;31.40;39.35
13312;BME280;34033;48.672;9.376;2022-07-22T12:11:14;98506.28;;;31.48;38.97
13312;BME280;34033;48.672;9.376;2022-07-22T12:13:42;98503.59;;;31.04;40.16
13312;BME280;34033;48.672;9.376;2022-07-22T12:16:18;98503.03;;;30.83;40.13
13312;BME280;34033;48.672;9.376;2022-07-22T12:18:50;98494.34;;;31.00;39.94
13312;BME280;34033;48.672;9.376;2022-07-22T12:21:16;98490.16;;;31.12;39.45
13312;BME280;34033;48.672;9.376;2022-07-22T12:23:49;98489.66;;;30.97;40.04
13312;BME280;34033;48.672;9.376;2022-07-22T12:26:15;98490.72;;;30.77;39.58
13312;BME280;34033;48.672;9.376;2022-07-22T12:28:40;98482.06;;;30.83;39.90
13312;BME280;34033;48.672;9.376;2022-07-22T12:31:05;98473.59;;;31.18;40.02
13312;BME280;34033;48.672;9.376;2022-07-22T12:33:31;98467.72;;;31.46;39.33
13312;BME280;34033;48.672;9.376;2022-07-22T12:36:04;98468.53;;;31.35;38.85
13312;BME280;34033;48.672;9.376;2022-07-22T12:38:31;98465.28;;;31.61;38.40
13312;BME280;34033;48.672;9.376;2022-07-22T12:41:26;98465.88;;;31.43;39.10
13312;BME280;34033;48.672;9.376;2022-07-22T12:43:54;98463.53;;;31.88;38.66
13312;BME280;34033;48.672;9.376;2022-07-22T12:46:19;98453.78;;;31.97;38.18
13312;BME280;34033;48.672;9.376;2022-07-22T12:48:52;98452.00;;;32.23;36.94
13312;BME280;34033;48.672;9.376;2022-07-22T12:51:18;98453.59;;;32.24;36.75
13312;BME280;34033;48.672;9.376;2022-07-22T12:53:43;98444.56;;;32.63;37.04
13312;BME280;34033;48.672;9.376;2022-07-22T12:56:09;98447.66;;;32.95;36.87
13312;BME280;34033;48.672;9.376;2022-07-22T12:58:36;98442.22;;;32.86;36.23
13312;BME280;34033;48.672;9.376;2022-07-22T13:01:03;98440.63;;;33.09;34.50
13312;BME280;34033;48.672;9.376;2022-07-22T13:03:29;98447.34;;;33.23;35.56
13312;BME280;34033;48.672;9.376;2022-07-22T13:06:00;98432.56;;;33.64;35.16